Time;durP1;ratioP1;P1;durP2;ratioP2;P2;SDS_P1;SDS_P2;PMS_P1;PMS_P2;Temp;Humidity;BMP_temperature;BMP_pressure;BME280_temperature;BME280_humidity;BME280_pressure;Samples;Min_cycle;Max_cycle;Signal;HPM_P1;HPM_P2
2023/05/05 00:01:31;;;;;;;;;1.00;1.00;;;;;19.35;51.10;101279.03;5075106;28;45531;-74
2023/05/05 00:03:57;;;;;;;;;0.67;0.67;;;;;19.28;50.73;101270.34;5077937;27;45548;-75
2023/05/05 00:06:23;;;;;;;;;0.67;0.67;;;;;19.31;50.91;101280.03;5078077;28;45534;-73
2023/05/05 00:08:49;;;;;;;;;3.00;1.33;;;;;19.30;51.12;101272.97;5076080;28;46050;-78
2023/05/05 00:11:15;;;;;;;;;1.00;1.00;;;;;19.22;51.25;101265.22;5075926;28;45508;-77
2023/05/05 00:13:40;;;;;;;;;1.00;1.00;;;;;19.11;51.68;101235.41;5059088;28;45716;-75
2023/05/05 00:16:06;;;;;;;;;1.00;1.00;;;;;19.14;51.04;101237.97;5057411;28;45580;-75
2023/05/05 00:18:32;;;;;;;;;1.00;1.00;;;;;19.06;51.37;101226.69;5076191;28;45621;-73
2023/05/05 00:20:58;;;;;;;;;1.00;1.00;;;;;19.18;51.53;101250.25;5060273;28;45711;-69
2023/05/05 00:23:24;;;;;;;;;1.00;1.00;;;;;19.18;51.45;101252.06;5072190;28;45488;-71
2023/05/05 00:25:49;;;;;;;;;2.00;2.00;;;;;19.17;51.56;101248.53;5076211;27;45772;-75
2023/05/05 00:28:16;;;;;;;;;3.00;1.00;;;;;19.05;51.64;101236.44;5066678;28;46020;-77
2023/05/05 00:30:42;;;;;;;;;2.00;1.00;;;;;19.11;51.61;101246.03;5073713;27;45538;-76
2023/05/05 00:33:08;;;;;;;;;2.00;0.00;;;;;19.04;51.87;101233.81;5080715;28;45435;-74
2023/05/05 00:35:34;;;;;;;;;1.00;1.00;;;;;18.95;52.05;101213.66;5059149;28;45357;-74
2023/05/05 00:37:59;;;;;;;;;4.00;1.00;;;;;18.98;52.15;101232.19;5077458;28;46387;-78
2023/05/05 00:40:25;;;;;;;;;0.67;0.67;;;;;18.93;52.18;101223.44;5058301;28;45410;-72
2023/05/05 00:42:51;;;;;;;;;1.00;1.00;;;;;18.95;52.23;101218.97;5067867;28;45606;-74
2023/05/05 00:45:18;;;;;;;;;1.00;1.00;;;;;18.94;52.11;101222.56;5056356;28;45349;-78
2023/05/05 00:47:52;;;;;;;;;1.00;1.00;;;;;18.92;52.41;101224.38;5070650;27;45367;-76
2023/05/05 00:50:23;;;;;;;;;1.33;1.00;;;;;18.96;52.16;101244.63;5061725;28;45465;-79
2023/05/05 00:52:50;;;;;;;;;1.00;1.00;;;;;18.91;52.44;101242.97;5075704;28;45528;-77
2023/05/05 00:55:16;;;;;;;;;1.00;1.00;;;;;18.96;52.57;101249.94;5076910;28;45505;-73
2023/05/05 00:57:42;;;;;;;;;1.00;1.00;;;;;18.74;52.12;101208.88;5079825;28;45470;-69
2023/05/05 01:00:08;;;;;;;;;2.00;0.33;;;;;18.92;52.85;101250.91;5057871;27;45758;-70
2023/05/05 01:02:34;;;;;;;;;1.00;1.00;;;;;18.89;52.74;101248.34;5048266;28;45492;-75
2023/05/05 01:05:02;;;;;;;;;1.00;1.00;;;;;18.93;52.84;101251.78;5061337;27;45521;-76
2023/05/05 01:07:54;;;;;;;;;2.00;2.00;;;;;18.83;52.77;101238.72;5073611;28;46356;-77
2023/05/05 01:10:39;;;;;;;;;1.00;1.00;;;;;18.84;52.98;101252.91;5051646;28;45511;-76
2023/05/05 01:13:26;;;;;;;;;1.00;1.00;;;;;18.85;53.28;101259.94;5075829;28;45588;-72
2023/05/05 01:16:13;;;;;;;;;1.00;1.00;;;;;18.77;53.63;101268.09;5056263;28;45444;-75
2023/05/05 01:19:24;;;;;;;;;2.67;0.33;;;;;18.72;53.77;101258.44;5076359;28;45859;-72
2023/05/05 01:21:56;;;;;;;;;2.00;1.00;;;;;18.67;54.09;101247.94;5068723;27;45382;-78
2023/05/05 01:24:40;;;;;;;;;1.33;1.33;;;;;18.65;54.15;101250.63;5076967;28;45359;-75
2023/05/05 01:27:32;;;;;;;;;2.33;1.00;;;;;18.67;54.41;101239.09;5055516;28;45747;-75
2023/05/05 01:30:09;;;;;;;;;3.00;2.00;;;;;18.67;54.38;101241.75;5048453;28;45561;-73
2023/05/05 01:32:40;;;;;;;;;1.00;1.00;;;;;18.67;54.53;101239.09;5061057;28;45581;-76
2023/05/05 01:35:18;;;;;;;;;2.00;1.00;;;;;18.57;54.51;101222.53;5054804;28;45568;-75
2023/05/05 01:37:53;;;;;;;;;1.00;1.00;;;;;18.61;54.71;101221.56;5074397;28;45339;-73
2023/05/05 01:40:24;;;;;;;;;0.33;0.33;;;;;18.62;54.86;101231.25;5059493;28;45481;-78
2023/05/05 01:42:53;;;;;;;;;3.00;1.00;;;;;18.58;54.82;101219.84;5077424;28;45470;-77
2023/05/05 01:45:20;;;;;;;;;1.00;1.00;;;;;18.58;54.89;101218.97;5054574;28;45343;-79
2023/05/05 01:47:47;;;;;;;;;1.00;1.00;;;;;18.60;54.83;101225.09;5069730;28;45381;-75
2023/05/05 01:50:15;;;;;;;;;3.67;1.67;;;;;18.50;55.05;101208.53;5077742;28;45370;-77
2023/05/05 01:52:41;;;;;;;;;3.33;1.67;;;;;18.58;54.94;101211.00;5052937;28;45399;-78
2023/05/05 01:55:10;;;;;;;;;1.00;1.00;;;;;18.51;55.04;101217.34;5073666;28;45402;-78
2023/05/05 01:57:38;;;;;;;;;0.00;0.00;;;;;18.53;55.33;101219.09;5074439;27;45396;-79
2023/05/05 02:00:08;;;;;;;;;3.00;1.00;;;;;18.42;55.41;101205.22;5075198;27;46268;-77
2023/05/05 02:02:36;;;;;;;;;4.00;1.00;;;;;18.46;55.72;101227.22;5075013;28;45391;-77
2023/05/05 02:05:04;;;;;;;;;3.00;1.33;;;;;18.41;55.74;101222.00;5061221;28;46689;-77
2023/05/05 02:07:32;;;;;;;;;2.67;1.00;;;;;18.44;55.88;101227.25;5075835;28;45476;-77
2023/05/05 02:10:00;;;;;;;;;2.67;1.33;;;;;18.38;56.03;101232.69;5075170;28;46159;-77
2023/05/05 02:12:28;;;;;;;;;1.00;1.00;;;;;18.37;56.02;101221.22;5075435;28;45399;-75
2023/05/05 02:14:58;;;;;;;;;3.00;1.00;;;;;18.30;56.25;101214.31;5075287;28;45466;-78
2023/05/05 02:17:25;;;;;;;;;1.00;1.00;;;;;18.25;56.70;101215.28;5056986;28;45445;-77
2023/05/05 02:19:53;;;;;;;;;2.67;1.67;;;;;18.12;57.45;101218.22;5054914;28;45456;-79
2023/05/05 02:22:19;;;;;;;;;1.00;1.00;;;;;18.04;56.73;101222.84;5074892;28;45665;-80
2023/05/05 02:24:45;;;;;;;;;2.67;1.00;;;;;18.04;56.68;101227.25;5075836;27;45797;-77
2023/05/05 02:27:14;;;;;;;;;1.00;1.00;;;;;18.18;56.85;101246.41;5061628;28;45508;-78
2023/05/05 02:30:08;;;;;;;;;2.00;2.00;;;;;18.17;56.96;101256.09;5064536;28;45421;-74
2023/05/05 02:32:39;;;;;;;;;3.00;2.00;;;;;17.85;56.82;101213.53;5071541;27;45664;-78
2023/05/05 02:35:13;;;;;;;;;2.00;2.00;;;;;18.12;57.21;101255.34;5075197;28;45417;-78
2023/05/05 02:37:43;;;;;;;;;3.67;2.00;;;;;18.09;57.18;101255.41;5073119;28;45725;-73
2023/05/05 02:40:10;;;;;;;;;2.00;2.00;;;;;18.09;57.03;101241.28;5077269;28;46154;-78
2023/05/05 02:42:41;;;;;;;;;3.00;2.00;;;;;18.10;57.32;101253.63;5075563;28;45485;-77
2023/05/05 02:45:13;;;;;;;;;3.00;2.00;;;;;18.04;57.38;101249.34;5076209;28;45377;-75
2023/05/05 02:47:39;;;;;;;;;2.33;2.00;;;;;18.04;57.82;101238.75;5057312;28;45555;-78
2023/05/05 02:50:07;;;;;;;;;3.00;1.00;;;;;17.88;57.72;101235.53;5072724;28;45416;-78
2023/05/05 02:52:34;;;;;;;;;3.67;2.33;;;;;17.88;58.14;101253.19;5075068;28;45438;-78
2023/05/05 02:55:01;;;;;;;;;3.33;2.00;;;;;17.82;58.59;101255.97;5061060;28;45846;-73
2023/05/05 02:57:36;;;;;;;;;1.00;1.00;;;;;17.81;58.41;101252.44;5074772;28;45342;-79
2023/05/05 03:00:15;;;;;;;;;4.00;2.00;;;;;17.73;58.36;101259.66;5059370;28;47417;-80
2023/05/05 03:03:12;;;;;;;;;2.00;2.00;;;;;17.56;58.52;101221.09;5085545;27;45448;-79
2023/05/05 03:05:49;;;;;;;;;3.00;2.00;;;;;17.62;58.70;101248.38;5086122;28;45501;-76
2023/05/05 03:08:37;;;;;;;;;3.33;2.67;;;;;17.60;58.54;101235.16;5078206;27;45296;-77
2023/05/05 03:11:06;;;;;;;;;3.67;3.33;;;;;17.59;58.90;101236.06;5080055;28;46021;-79
2023/05/05 03:13:39;;;;;;;;;6.00;3.00;;;;;17.50;58.57;101233.59;5059998;28;45379;-77
2023/05/05 03:16:07;;;;;;;;;4.67;3.00;;;;;17.45;59.23;101227.50;5073390;28;45886;-78
2023/05/05 03:18:33;;;;;;;;;4.00;4.00;;;;;17.26;59.30;101204.00;5074627;28;45635;-78
2023/05/05 03:21:07;;;;;;;;;3.00;3.00;;;;;17.30;60.02;101223.38;5076744;28;45716;-77
2023/05/05 03:23:36;;;;;;;;;5.00;3.33;;;;;17.25;59.74;101226.09;5077078;27;45736;-78
2023/05/05 03:26:02;;;;;;;;;3.33;3.33;;;;;17.22;59.99;101234.06;5056385;28;45599;-77
2023/05/05 03:28:28;;;;;;;;;2.00;2.00;;;;;17.20;60.10;101233.22;5042761;28;45419;-76
2023/05/05 03:30:53;;;;;;;;;2.00;2.00;;;;;17.13;59.98;101231.59;5073301;28;45509;-77
2023/05/05 03:33:19;;;;;;;;;3.00;3.00;;;;;17.15;60.07;101243.91;5073857;28;45787;-74
2023/05/05 03:35:45;;;;;;;;;2.33;2.33;;;;;17.19;59.83;101252.66;5075159;28;45449;-77
2023/05/05 03:38:10;;;;;;;;;5.33;3.00;;;;;17.15;59.98;101243.03;5075966;28;45289;-72
2023/05/05 03:40:36;;;;;;;;;2.00;2.00;;;;;17.11;59.89;101231.63;5055416;28;47426;-72
2023/05/05 03:43:01;;;;;;;;;4.67;2.00;;;;;17.23;59.91;101251.72;5073497;28;45355;-71
2023/05/05 03:45:27;;;;;;;;;4.33;1.67;;;;;17.29;59.85;101262.19;5075806;28;45465;-73
2023/05/05 03:47:53;;;;;;;;;3.00;1.00;;;;;17.34;59.60;101270.91;5057033;28;45563;-74
2023/05/05 03:50:18;;;;;;;;;3.67;2.00;;;;;17.37;59.92;101268.25;5078568;27;46128;-77
2023/05/05 03:52:44;;;;;;;;;2.33;2.00;;;;;17.33;60.03;101282.44;5077381;28;45361;-76
2023/05/05 03:55:09;;;;;;;;;4.00;1.00;;;;;17.24;60.14;101273.78;5075787;28;45325;-79
2023/05/05 03:57:35;;;;;;;;;3.00;1.33;;;;;17.29;59.74;101258.69;5058929;28;45512;-76
2023/05/05 04:00:01;;;;;;;;;2.33;2.33;;;;;17.28;59.70;101252.50;5073689;28;46179;-77
2023/05/05 04:02:26;;;;;;;;;3.33;2.00;;;;;17.35;59.88;101275.34;5072501;28;45400;-75
2023/05/05 04:04:52;;;;;;;;;2.00;2.00;;;;;17.28;59.78;101262.25;5073501;28;45727;-75
2023/05/05 04:07:17;;;;;;;;;1.00;1.00;;;;;17.30;59.66;101281.63;5055450;28;45462;-75
2023/05/05 04:09:43;;;;;;;;;3.67;2.00;;;;;17.11;60.64;101276.63;5071953;27;47865;-76
2023/05/05 04:12:12;;;;;;;;;3.00;1.67;;;;;17.15;60.77;101288.03;5055106;28;45382;-71
2023/05/05 04:14:38;;;;;;;;;4.00;2.00;;;;;17.26;59.98;101288.72;5055583;28;45381;-70
2023/05/05 04:17:06;;;;;;;;;3.00;1.00;;;;;17.24;60.38;101285.22;5073879;27;45476;-76
2023/05/05 04:19:32;;;;;;;;;1.33;1.33;;;;;17.23;60.54;101298.50;5075260;27;46468;-78
2023/05/05 04:21:58;;;;;;;;;3.33;1.33;;;;;17.30;60.50;101294.84;5076683;28;45339;-76
2023/05/05 04:24:24;;;;;;;;;2.00;1.67;;;;;17.31;59.92;101288.66;5079774;28;45474;-72
2023/05/05 04:26:51;;;;;;;;;2.00;2.00;;;;;17.31;59.85;101286.88;5080428;28;45505;-76
2023/05/05 04:29:17;;;;;;;;;3.00;1.00;;;;;17.25;59.56;101270.22;5059351;28;47080;-72
2023/05/05 04:31:43;;;;;;;;;2.00;2.00;;;;;17.48;59.90;101304.25;5073528;28;45451;-76
2023/05/05 04:34:08;;;;;;;;;3.00;1.00;;;;;17.50;59.96;101299.78;5053118;28;45518;-77
2023/05/05 04:36:34;;;;;;;;;1.33;1.00;;;;;17.49;60.08;101298.06;5076669;27;45342;-77
2023/05/05 04:39:00;;;;;;;;;2.00;2.00;;;;;17.54;60.31;101309.44;5042369;28;45443;-73
2023/05/05 04:41:26;;;;;;;;;4.33;3.00;;;;;17.52;60.21;101308.59;5055286;28;45460;-72
2023/05/05 04:43:55;;;;;;;;;4.00;2.00;;;;;17.62;60.68;101307.53;5060939;28;45422;-71
2023/05/05 04:46:21;;;;;;;;;2.00;2.00;;;;;17.56;61.05;101311.16;5063720;28;45502;-75
2023/05/05 04:48:47;;;;;;;;;3.67;2.00;;;;;17.36;61.51;101298.25;5059436;28;47089;-69
2023/05/05 04:51:13;;;;;;;;;3.67;2.00;;;;;17.43;61.50;101303.44;5059014;28;45588;-75
2023/05/05 04:53:38;;;;;;;;;2.33;2.33;;;;;17.39;61.81;101292.03;5056427;28;45382;-71
2023/05/05 04:56:04;;;;;;;;;2.33;1.33;;;;;17.44;61.99;101305.19;5042680;28;45516;-76
2023/05/05 04:58:30;;;;;;;;;2.00;2.00;;;;;17.34;62.34;101294.75;5062151;28;46216;-69
2023/05/05 05:00:56;;;;;;;;;2.67;1.67;;;;;17.38;62.55;101315.00;5062158;28;45418;-70
2023/05/05 05:03:22;;;;;;;;;3.33;3.00;;;;;17.37;61.98;101315.91;5056054;28;45335;-76
2023/05/05 05:05:47;;;;;;;;;2.67;2.00;;;;;17.44;61.95;101313.13;5062504;28;45430;-72
2023/05/05 05:08:17;;;;;;;;;3.00;2.00;;;;;17.31;62.97;101294.81;5062732;28;45303;-72
2023/05/05 05:10:43;;;;;;;;;2.00;2.00;;;;;17.35;62.97;101328.28;5042865;28;45529;-70
2023/05/05 05:13:09;;;;;;;;;1.00;1.00;;;;;17.35;62.99;101327.41;5055824;28;45390;-73
2023/05/05 05:15:37;;;;;;;;;3.00;2.00;;;;;17.39;63.12;101323.81;5056315;28;45473;-76
2023/05/05 05:18:03;;;;;;;;;2.00;1.00;;;;;17.45;63.27;101328.13;5065628;28;46638;-78
2023/05/05 05:20:30;;;;;;;;;3.00;2.00;;;;;17.44;63.38;101311.38;5055598;28;45371;-79
2023/05/05 05:22:56;;;;;;;;;3.00;2.00;;;;;17.27;63.70;101298.41;5038452;28;45490;-77
2023/05/05 05:25:22;;;;;;;;;6.00;3.00;;;;;17.28;64.34;101328.44;5056278;28;45400;-76
2023/05/05 05:27:47;;;;;;;;;4.00;1.00;;;;;17.16;65.16;101324.19;5056426;28;45608;-77
2023/05/05 05:30:13;;;;;;;;;2.00;2.00;;;;;17.19;64.68;101320.63;5074667;27;45406;-77
2023/05/05 05:32:39;;;;;;;;;3.00;1.33;;;;;17.17;65.26;101325.94;5081571;28;45461;-78
2023/05/05 05:35:05;;;;;;;;;2.00;2.00;;;;;17.16;64.59;101321.56;5081186;28;45357;-79
2023/05/05 05:37:31;;;;;;;;;2.67;2.00;;;;;17.21;64.92;101334.72;5080794;28;45565;-78
2023/05/05 05:39:56;;;;;;;;;3.67;3.00;;;;;17.17;64.93;101326.81;5080662;28;45565;-72
2023/05/05 05:42:22;;;;;;;;;3.00;2.00;;;;;17.17;65.04;101336.53;5076653;27;46766;-78
2023/05/05 05:44:47;;;;;;;;;2.33;2.33;;;;;17.02;65.30;101321.75;5076924;28;45469;-76
2023/05/05 05:47:13;;;;;;;;;5.00;3.00;;;;;17.08;65.40;101334.00;5060508;28;47913;-76
2023/05/05 05:49:39;;;;;;;;;4.00;2.00;;;;;17.07;65.34;101333.16;5057759;28;45323;-75
2023/05/05 05:52:05;;;;;;;;;4.33;2.33;;;;;16.91;65.88;101337.78;5076233;27;45564;-78
2023/05/05 05:54:33;;;;;;;;;3.00;2.00;;;;;16.88;66.46;101348.41;5074657;27;45277;-78
2023/05/05 05:56:58;;;;;;;;;2.33;2.00;;;;;16.74;66.44;101330.06;5079853;28;45441;-77
2023/05/05 05:59:24;;;;;;;;;2.00;2.00;;;;;16.85;66.44;101348.47;5079111;28;45358;-78
2023/05/05 06:01:49;;;;;;;;;2.67;2.00;;;;;16.79;66.85;101343.25;5077837;28;45409;-77
2023/05/05 06:04:15;;;;;;;;;0.67;0.67;;;;;16.77;67.15;101350.31;5075799;28;45786;-69
2023/05/05 06:06:40;;;;;;;;;3.33;3.00;;;;;16.81;66.51;101356.47;5075247;28;45791;-70
2023/05/05 06:09:06;;;;;;;;;5.00;2.00;;;;;16.78;66.92;101348.56;5075619;28;45389;-76
2023/05/05 06:11:33;;;;;;;;;2.00;2.00;;;;;16.78;67.38;101381.16;5078918;28;45520;-73
2023/05/05 06:13:59;;;;;;;;;3.33;1.33;;;;;16.84;66.75;101374.94;5075963;28;45566;-69
2023/05/05 06:16:24;;;;;;;;;2.00;2.00;;;;;16.85;67.04;101369.63;5057584;28;46870;-78
2023/05/05 06:18:53;;;;;;;;;1.00;1.00;;;;;16.94;66.74;101376.56;5074138;28;45832;-79
2023/05/05 06:21:19;;;;;;;;;6.33;4.00;;;;;16.86;67.05;101371.38;5079458;28;45396;-79
2023/05/05 06:23:46;;;;;;;;;4.67;4.00;;;;;16.52;68.32;101355.94;5059216;28;45403;-78
2023/05/05 06:26:11;;;;;;;;;7.33;4.00;;;;;16.47;68.66;101384.19;5076744;28;45361;-78
2023/05/05 06:28:37;;;;;;;;;4.00;4.00;;;;;16.31;69.68;101377.34;5066250;28;45411;-78
2023/05/05 06:31:03;;;;;;;;;6.67;5.00;;;;;16.23;69.87;101380.09;5080441;28;45473;-79
2023/05/05 06:33:40;;;;;;;;;3.00;3.00;;;;;16.28;69.90;101382.66;5078692;28;45379;-72
2023/05/05 06:36:05;;;;;;;;;3.00;3.00;;;;;16.21;69.47;101366.00;5076325;27;46245;-78
2023/05/05 06:38:31;;;;;;;;;4.00;4.00;;;;;16.31;69.15;101372.94;5057842;28;45468;-79
2023/05/05 06:40:57;;;;;;;;;6.00;5.00;;;;;16.25;69.47;101364.19;5061048;28;45311;-79
2023/05/05 06:43:22;;;;;;;;;7.33;5.67;;;;;16.24;69.48;101360.66;5061061;28;45371;-79
2023/05/05 06:45:48;;;;;;;;;2.33;2.00;;;;;16.31;69.07;101350.91;5045231;28;45722;-77
2023/05/05 06:48:13;;;;;;;;;6.67;3.67;;;;;16.28;69.43;101350.94;5036444;28;45569;-76
2023/05/05 06:50:39;;;;;;;;;5.00;3.00;;;;;16.10;69.95;101338.81;5054533;28;45463;-78
2023/05/05 06:53:05;;;;;;;;;2.00;2.00;;;;;16.14;70.13;101340.53;5040092;28;45669;-79
2023/05/05 06:55:30;;;;;;;;;5.00;3.00;;;;;16.27;69.50;101341.25;5057425;28;46242;-78
2023/05/05 06:57:56;;;;;;;;;5.00;3.00;;;;;16.26;69.27;101336.88;5078265;28;45314;-78
2023/05/05 07:00:22;;;;;;;;;3.00;3.00;;;;;16.11;70.42;101338.81;5061532;28;45677;-76
2023/05/05 07:02:47;;;;;;;;;3.33;3.00;;;;;16.04;70.40;101338.88;5060030;28;45280;-78
2023/05/05 07:05:13;;;;;;;;;6.67;3.00;;;;;16.18;70.32;101357.22;5060407;28;46099;-77
2023/05/05 07:07:50;;;;;;;;;5.33;3.00;;;;;16.09;69.93;101327.38;5051583;28;45861;-72
2023/05/05 07:10:16;;;;;;;;;2.00;2.00;;;;;16.31;69.91;101364.13;5061847;28;45528;-73
2023/05/05 07:12:41;;;;;;;;;2.67;2.00;;;;;16.33;69.75;101359.69;5063700;28;45481;-71
2023/05/05 07:15:08;;;;;;;;;2.00;2.00;;;;;16.41;69.69;101372.81;5059309;28;46486;-78
2023/05/05 07:17:33;;;;;;;;;3.00;3.00;;;;;16.50;69.88;101372.72;5068747;28;45474;-77
2023/05/05 07:19:59;;;;;;;;;7.67;3.67;;;;;16.63;68.89;101373.41;5054420;28;45362;-79
2023/05/05 07:22:25;;;;;;;;;3.00;3.00;;;;;16.66;68.32;101374.28;5059121;28;45418;-79
2023/05/05 07:24:52;;;;;;;;;2.67;2.67;;;;;16.89;67.78;101392.50;5066927;28;46525;-78
2023/05/05 07:27:21;;;;;;;;;3.00;3.00;;;;;16.88;67.56;101363.44;5050392;28;45632;-76
2023/05/05 07:29:47;;;;;;;;;2.67;1.67;;;;;17.09;67.26;101378.13;5071736;28;45364;-75
2023/05/05 07:32:12;;;;;;;;;4.00;2.33;;;;;17.15;67.20;101373.59;5042189;28;45696;-76
2023/05/05 07:34:39;;;;;;;;;4.00;4.00;;;;;17.18;66.61;101375.34;5057669;28;45237;-78
2023/05/05 07:37:05;;;;;;;;;3.67;3.67;;;;;16.89;67.05;101352.81;5060461;28;45531;-79
2023/05/05 07:39:31;;;;;;;;;3.33;3.00;;;;;16.81;67.09;101359.13;5057975;28;45423;-77
2023/05/05 07:41:57;;;;;;;;;2.00;2.00;;;;;16.73;67.96;101377.72;5064156;28;45355;-72
2023/05/05 07:44:22;;;;;;;;;3.33;3.33;;;;;16.86;67.89;101374.03;5048028;28;48078;-78
2023/05/05 07:46:48;;;;;;;;;4.00;2.00;;;;;16.79;67.92;101340.63;5058837;28;45474;-78
2023/05/05 07:49:14;;;;;;;;;7.67;3.00;;;;;16.66;67.93;101344.31;5055521;28;45327;-76
2023/05/05 07:51:40;;;;;;;;;3.67;3.00;;;;;16.48;68.43;101327.78;5055231;28;45482;-78
2023/05/05 07:54:05;;;;;;;;;4.33;4.00;;;;;16.54;68.45;101348.00;5057855;28;45502;-76
2023/05/05 07:56:31;;;;;;;;;6.00;3.00;;;;;16.57;68.27;101362.94;5049713;28;45409;-77
2023/05/05 07:58:56;;;;;;;;;3.33;3.00;;;;;16.49;68.51;101324.25;5061770;27;45472;-74
2023/05/05 08:01:22;;;;;;;;;3.00;3.00;;;;;16.73;68.50;101360.06;5068718;28;45414;-69
2023/05/05 08:03:47;;;;;;;;;2.67;2.33;;;;;16.67;68.70;101385.72;5059163;28;45608;-79
2023/05/05 08:06:20;;;;;;;;;3.67;3.67;;;;;16.70;68.23;101383.91;5075039;28;45434;-78
2023/05/05 08:08:50;;;;;;;;;4.00;4.00;;;;;16.86;68.19;101395.19;5059648;28;47047;-78
2023/05/05 08:11:16;;;;;;;;;4.33;4.00;;;;;16.94;67.97;101392.44;5061581;28;45559;-79
2023/05/05 08:13:42;;;;;;;;;5.00;4.00;;;;;17.03;68.04;101405.53;5059597;28;46139;-76
2023/05/05 08:16:08;;;;;;;;;4.33;3.33;;;;;17.04;67.77;101417.88;5062293;28;45402;-77
2023/05/05 08:18:36;;;;;;;;;4.00;4.00;;;;;17.10;67.72;101411.63;5063109;28;45554;-76
2023/05/05 08:21:04;;;;;;;;;5.67;4.00;;;;;17.15;67.21;101408.00;5060210;28;45537;-78
2023/05/05 08:23:29;;;;;;;;;6.00;3.00;;;;;17.23;67.02;101409.69;5050085;28;46773;-78
2023/05/05 08:25:55;;;;;;;;;6.00;4.33;;;;;17.15;66.80;101409.78;5060247;27;45451;-79
2023/05/05 08:28:21;;;;;;;;;9.00;4.00;;;;;16.93;67.31;101398.63;5058376;28;45421;-77
2023/05/05 08:30:48;;;;;;;;;3.00;3.00;;;;;16.84;66.79;101393.47;5061136;28;45597;-75
2023/05/05 08:33:14;;;;;;;;;3.00;3.00;;;;;16.95;67.55;101405.66;5062356;28;45453;-73
2023/05/05 08:35:40;;;;;;;;;2.67;2.67;;;;;17.07;65.54;101406.38;5057311;28;45614;-75
2023/05/05 08:38:06;;;;;;;;;3.00;3.00;;;;;16.88;65.37;101393.41;5060709;28;45785;-71
2023/05/05 08:40:35;;;;;;;;;3.00;3.00;;;;;16.91;64.95;101393.34;5075084;28;45683;-73
2023/05/05 08:43:01;;;;;;;;;4.00;2.33;;;;;17.09;65.03;101396.66;5064154;28;45568;-80
2023/05/05 08:45:28;;;;;;;;;2.33;2.33;;;;;17.24;64.42;101374.38;5037227;28;45603;-73
2023/05/05 08:48:00;;;;;;;;;3.00;3.00;;;;;17.62;63.59;101383.47;5059129;27;46083;-74
2023/05/05 08:50:27;;;;;;;;;5.00;5.00;;;;;17.63;62.57;101399.34;5060221;28;45410;-70
2023/05/05 08:53:17;;;;;;;;;7.00;3.33;;;;;17.74;61.78;101407.97;5062402;28;45430;-70
2023/05/05 08:55:55;;;;;;;;;3.67;2.00;;;;;17.95;61.68;101397.94;5041137;27;45494;-73
2023/05/05 08:58:25;;;;;;;;;2.00;2.00;;;;;17.99;61.27;101392.56;5065436;27;45713;-80
2023/05/05 09:00:51;;;;;;;;;3.00;2.00;;;;;17.81;60.13;101400.81;5072406;27;45331;-79
2023/05/05 09:03:16;;;;;;;;;3.00;3.00;;;;;17.68;60.63;101400.13;5066694;27;45368;-78
2023/05/05 09:05:43;;;;;;;;;1.33;1.33;;;;;17.90;60.73;101397.16;5055813;28;45422;-72
2023/05/05 09:08:12;;;;;;;;;3.33;2.33;;;;;18.09;60.54;101390.59;5060552;28;45455;-72
2023/05/05 09:10:41;;;;;;;;;3.67;2.67;;;;;18.16;59.87;101389.59;5055696;28;45572;-75
2023/05/05 09:13:07;;;;;;;;;2.00;2.00;;;;;18.36;59.09;101390.97;5055412;28;45374;-75
2023/05/05 09:15:33;;;;;;;;;2.00;2.00;;;;;18.67;58.28;101390.34;5038647;28;45620;-74
2023/05/05 09:18:00;;;;;;;;;4.00;1.67;;;;;18.90;57.40;101398.72;5039791;28;45479;-78
2023/05/05 09:20:34;;;;;;;;;2.00;1.00;;;;;19.09;56.03;101390.34;5050722;28;45468;-77
2023/05/05 09:23:11;;;;;;;;;1.00;1.00;;;;;18.83;56.04;101399.75;5073512;28;46772;-73
2023/05/05 09:25:37;;;;;;;;;4.33;1.00;;;;;18.67;56.17;101390.34;5056592;28;45813;-80
2023/05/05 09:28:14;;;;;;;;;2.00;2.00;;;;;18.89;56.19;101391.66;5056914;28;45420;-77
2023/05/05 09:30:42;;;;;;;;;1.33;1.33;;;;;19.11;55.46;101384.09;5070180;28;45874;-77
2023/05/05 09:33:08;;;;;;;;;1.00;1.00;;;;;19.22;55.01;101362.56;5049184;28;45513;-73
2023/05/05 09:35:54;;;;;;;;;2.00;2.00;;;;;19.24;55.19;101377.59;5075242;28;45478;-74
2023/05/05 09:38:23;;;;;;;;;2.00;1.67;;;;;19.23;55.25;101389.09;5075775;28;46003;-74
2023/05/05 09:40:52;;;;;;;;;1.00;1.00;;;;;19.20;55.53;101381.22;5054668;28;45970;-77
2023/05/05 09:43:22;;;;;;;;;3.00;3.00;;;;;19.30;54.96;101402.25;5058612;28;45464;-74
2023/05/05 09:45:49;;;;;;;;;3.67;2.67;;;;;19.22;54.68;101373.19;5059014;28;45795;-75
2023/05/05 09:48:31;;;;;;;;;3.00;1.33;;;;;19.31;55.00;101356.19;5063418;27;45556;-76
2023/05/05 09:50:58;;;;;;;;;2.00;2.00;;;;;19.61;53.97;101389.09;5060425;28;45614;-77
2023/05/05 09:53:55;;;;;;;;;3.00;1.00;;;;;19.97;53.83;101370.47;5062321;28;46264;-77
2023/05/05 09:56:38;;;;;;;;;2.00;2.00;;;;;20.10;52.61;101356.81;5057308;28;45444;-76
2023/05/05 09:59:10;;;;;;;;;3.33;2.00;;;;;20.04;52.15;101343.66;5058019;28;44848;-76
2023/05/05 10:01:37;;;;;;;;;3.33;1.33;;;;;20.20;52.93;101365.41;5054497;28;45359;-72
2023/05/05 10:04:04;;;;;;;;;2.33;2.00;;;;;19.91;51.55;101291.75;5054739;28;45345;-73
2023/05/05 10:06:43;;;;;;;;;2.00;2.00;;;;;20.11;52.03;101363.84;5054865;28;45315;-74
2023/05/05 10:09:46;;;;;;;;;2.00;2.00;;;;;20.19;53.03;101350.34;5055957;28;45878;-73
2023/05/05 10:12:12;;;;;;;;;1.00;1.00;;;;;20.30;52.56;101320.78;5059073;28;45324;-74
2023/05/05 10:14:37;;;;;;;;;2.00;2.00;;;;;20.48;52.19;101338.00;5059750;28;45905;-76
2023/05/05 10:17:09;;;;;;;;;1.67;1.33;;;;;20.40;51.76;101338.22;5058708;28;45370;-74
2023/05/05 10:19:37;;;;;;;;;1.33;1.33;;;;;20.20;51.65;101321.97;5046525;28;45343;-77
2023/05/05 10:22:07;;;;;;;;;4.00;2.67;;;;;20.19;51.01;101328.19;5057982;27;45327;-76
2023/05/05 10:24:32;;;;;;;;;1.00;1.00;;;;;20.17;51.30;101335.34;5056967;28;45381;-76
2023/05/05 10:27:02;;;;;;;;;1.00;1.00;;;;;20.08;51.72;101325.84;5059038;28;45341;-76
2023/05/05 10:29:44;;;;;;;;;2.00;2.00;;;;;19.92;52.41;101309.44;5064129;28;45318;-75
2023/05/05 10:32:46;;;;;;;;;2.00;2.00;;;;;20.03;52.37;101318.00;5057821;28;45741;-74
2023/05/05 10:35:16;;;;;;;;;3.00;2.00;;;;;20.06;52.38;101330.34;5074195;27;46302;-74
2023/05/05 10:37:44;;;;;;;;;2.33;2.00;;;;;20.06;52.49;101320.56;5079826;27;45173;-75
2023/05/05 10:40:13;;;;;;;;;2.00;2.00;;;;;20.38;52.13;101328.53;5057980;27;45573;-75
2023/05/05 10:42:40;;;;;;;;;2.00;2.00;;;;;20.44;51.74;101304.41;5057159;28;45586;-74
2023/05/05 10:45:09;;;;;;;;;1.33;1.33;;;;;20.72;50.83;101325.78;5059635;28;46853;-75
2023/05/05 10:47:39;;;;;;;;;1.67;1.67;;;;;20.51;50.70;101329.94;5073540;28;45362;-75
2023/05/05 10:50:10;;;;;;;;;1.00;1.00;;;;;20.69;50.54;101318.75;5079942;28;45300;-74
2023/05/05 10:52:41;;;;;;;;;4.33;2.00;;;;;20.55;50.67;101299.66;5061635;28;45611;-73
2023/05/05 10:55:25;;;;;;;;;2.33;2.00;;;;;20.73;50.68;101312.41;5054438;28;46237;-74
2023/05/05 10:57:52;;;;;;;;;1.00;1.00;;;;;20.44;50.49;101280.47;5068141;28;45441;-71
2023/05/05 11:00:36;;;;;;;;;2.00;1.00;;;;;20.52;50.63;101313.03;5062467;28;45547;-73
2023/05/05 11:03:18;;;;;;;;;0.67;0.67;;;;;20.55;51.03;101310.28;5059961;28;45375;-73
2023/05/05 11:06:02;;;;;;;;;2.00;2.00;;;;;20.34;51.41;101311.81;5066526;28;46673;-75
2023/05/05 11:08:28;;;;;;;;;0.33;0.33;;;;;20.32;51.36;101290.56;5054384;28;45716;-72
2023/05/05 11:10:54;;;;;;;;;3.00;1.67;;;;;20.52;51.34;101274.00;5061941;28;45472;-74
2023/05/05 11:13:21;;;;;;;;;0.67;0.00;;;;;20.69;50.86;101259.31;5055487;28;45450;-76
2023/05/05 11:15:48;;;;;;;;;0.00;0.00;;;;;20.75;50.12;101260.00;5035651;28;47816;-74
2023/05/05 11:18:43;;;;;;;;;1.00;1.00;;;;;21.07;50.74;101273.16;5048955;28;45575;-74
2023/05/05 11:21:16;;;;;;;;;1.67;1.67;;;;;21.36;49.91;101258.88;5054809;28;45392;-73
2023/05/05 11:23:52;;;;;;;;;1.00;1.00;;;;;21.57;48.92;101238.66;5056342;28;45887;-75
2023/05/05 11:26:53;;;;;;;;;1.33;1.33;;;;;22.18;48.12;101272.81;5054084;28;45749;-76
2023/05/05 11:29:24;;;;;;;;;1.00;1.00;;;;;22.05;47.77;101260.91;5067184;28;45472;-74
2023/05/05 11:32:12;;;;;;;;;0.00;0.00;;;;;21.63;47.92;101270.38;5078752;27;45469;-74
2023/05/05 11:34:48;;;;;;;;;1.00;1.00;;;;;21.20;48.95;101255.00;5078727;27;45292;-73